createdAt,value
2018-09-28T00:00:12.276Z,102708.34
2018-09-28T00:02:41.323Z,102708.57
2018-09-28T00:05:10.412Z,102712.97
2018-09-28T00:07:39.493Z,102714.95
2018-09-28T00:10:08.767Z,102713.88
2018-09-28T00:12:38.052Z,102701.12
2018-09-28T00:15:07.136Z,102705.48
2018-09-28T00:17:36.424Z,102709.51
2018-09-28T00:20:05.671Z,102709.41
2018-09-28T00:22:35.690Z,102716.95
2018-09-28T00:25:05.394Z,102713.95
2018-09-28T00:27:34.456Z,102719.16
2018-09-28T00:30:03.657Z,102722.91
2018-09-28T00:32:32.656Z,102717.41
2018-09-28T00:35:01.723Z,102725.80
2018-09-28T00:37:30.751Z,102717.55
2018-09-28T00:39:59.876Z,102722.56
2018-09-28T00:42:28.985Z,102723.54
2018-09-28T00:44:58.747Z,102717.20
2018-09-28T00:47:27.829Z,102721.27
2018-09-28T00:49:57.041Z,102716.97
2018-09-28T00:52:26.133Z,102720.08
2018-09-28T00:54:55.172Z,102725.52
2018-09-28T00:57:24.241Z,102726.36
2018-09-28T00:59:53.313Z,102732.31
2018-09-28T01:02:23.304Z,102721.44
2018-09-28T01:04:52.468Z,102727.52
2018-09-28T01:07:22.480Z,102728.33
2018-09-28T01:09:51.867Z,102727.52
2018-09-28T01:12:20.875Z,102723.31
2018-09-28T01:14:49.951Z,102724.90
2018-09-28T01:17:19.185Z,102726.77
2018-09-28T01:19:48.213Z,102728.14
2018-09-28T01:22:17.523Z,102724.90
2018-09-28T01:24:46.609Z,102729.84
2018-09-28T01:27:15.755Z,102728.56
2018-09-28T01:29:45.414Z,102728.07
2018-09-28T01:32:14.397Z,102740.03
2018-09-28T01:34:43.532Z,102730.48
2018-09-28T01:37:13.426Z,102733.75
2018-09-28T01:39:42.632Z,102728.31
2018-09-28T01:42:11.823Z,102730.19
2018-09-28T01:44:41.593Z,102723.02
2018-09-28T01:47:11.631Z,102731.51
2018-09-28T01:49:40.612Z,102720.02
2018-09-28T01:52:09.902Z,102712.94
2018-09-28T01:54:40.708Z,102717.63
2018-09-28T01:57:09.850Z,102720.64
2018-09-28T01:59:38.919Z,102724.20
2018-09-28T02:02:07.960Z,102720.74
2018-09-28T02:04:36.968Z,102724.89
2018-09-28T02:07:06.060Z,102724.24
2018-09-28T02:09:35.150Z,102726.61
2018-09-28T02:12:04.273Z,102727.06
2018-09-28T02:14:33.441Z,102723.48
2018-09-28T02:17:02.506Z,102724.73
2018-09-28T02:19:31.538Z,102723.15
2018-09-28T02:22:00.618Z,102720.98
2018-09-28T02:24:30.303Z,102714.86
2018-09-28T02:27:00.056Z,102717.28
2018-09-28T02:29:29.112Z,102715.70
2018-09-28T02:31:58.748Z,102715.48
2018-09-28T02:34:28.426Z,102715.38
2018-09-28T02:36:57.423Z,102725.85
2018-09-28T02:39:26.455Z,102722.23
2018-09-28T02:41:55.434Z,102718.05
2018-09-28T02:44:24.430Z,102725.80
2018-09-28T02:46:53.803Z,102724.50
2018-09-28T02:49:23.235Z,102729.61
2018-09-28T02:51:52.554Z,102726.16
2018-09-28T02:54:21.897Z,102728.75
2018-09-28T02:56:51.147Z,102735.09
2018-09-28T02:59:21.388Z,102726.75
2018-09-28T03:01:50.552Z,102726.52
2018-09-28T03:04:19.667Z,102731.95
2018-09-28T03:06:48.677Z,102735.58
2018-09-28T03:09:17.750Z,102739.43
2018-09-28T03:11:46.811Z,102742.37
2018-09-28T03:14:15.896Z,102730.16
2018-09-28T03:16:45.442Z,102736.72
2018-09-28T03:19:14.600Z,102741.92
2018-09-28T03:21:43.700Z,102745.70
2018-09-28T03:24:13.960Z,102746.97
2018-09-28T03:26:43.019Z,102744.47
2018-09-28T03:29:12.096Z,102749.39
2018-09-28T03:31:41.295Z,102740.40
2018-09-28T03:34:10.315Z,102742.72
2018-09-28T03:36:39.511Z,102748.67
2018-09-28T03:39:09.114Z,102748.27
2018-09-28T03:41:38.149Z,102749.68
2018-09-28T03:44:07.413Z,102751.83
2018-09-28T03:46:36.735Z,102746.52
2018-09-28T03:49:05.932Z,102755.17
2018-09-28T03:51:34.979Z,102761.67
2018-09-28T03:54:04.019Z,102766.11
2018-09-28T03:56:33.048Z,102773.31
2018-09-28T03:59:02.719Z,102773.09
2018-09-28T04:01:31.861Z,102782.80
2018-09-28T04:04:02.044Z,102782.80
2018-09-28T04:06:31.031Z,102789.48
2018-09-28T04:09:00.029Z,102787.62
2018-09-28T04:11:29.062Z,102792.13
2018-09-28T04:13:58.045Z,102801.00
2018-09-28T04:16:27.042Z,102802.47
2018-09-28T04:18:56.063Z,102796.75
2018-09-28T04:21:25.121Z,102802.39
2018-09-28T04:23:54.189Z,102809.17
2018-09-28T04:26:23.214Z,102809.17
2018-09-28T04:28:52.248Z,102808.88
2018-09-28T04:31:21.341Z,102809.17
2018-09-28T04:33:50.400Z,102805.84
2018-09-28T04:36:19.371Z,102818.75
2018-09-28T04:38:48.432Z,102820.33
2018-09-28T04:41:17.485Z,102827.70
2018-09-28T04:43:46.556Z,102827.27
2018-09-28T04:46:15.611Z,102828.41
2018-09-28T04:48:44.708Z,102827.45
2018-09-28T04:51:13.724Z,102838.94
2018-09-28T04:53:42.716Z,102839.52
2018-09-28T04:56:12.041Z,102822.20
2018-09-28T04:58:41.088Z,102824.18
2018-09-28T05:01:10.161Z,102831.89
2018-09-28T05:03:39.434Z,102842.41
2018-09-28T05:06:08.553Z,102849.78
2018-09-28T05:08:37.574Z,102847.35
2018-09-28T05:11:06.647Z,102848.38
2018-09-28T05:13:35.717Z,102856.70
2018-09-28T05:16:04.822Z,102857.49
2018-09-28T05:18:33.903Z,102855.90
2018-09-28T05:21:02.976Z,102858.67
2018-09-28T05:23:32.173Z,102869.19
2018-09-28T05:26:01.224Z,102864.16
2018-09-28T05:28:30.284Z,102864.25
2018-09-28T05:30:59.459Z,102868.95
2018-09-28T05:33:28.851Z,102874.78
2018-09-28T05:35:57.836Z,102883.87
2018-09-28T05:38:27.216Z,102883.53
2018-09-28T05:40:56.264Z,102889.66
2018-09-28T05:43:25.337Z,102906.47
2018-09-28T05:45:54.378Z,102904.36
2018-09-28T05:48:23.432Z,102902.78
2018-09-28T05:50:52.460Z,102906.02
2018-09-28T05:53:21.521Z,102909.48
2018-09-28T05:55:50.511Z,102903.75
2018-09-28T05:58:24.652Z,102913.88
2018-09-28T06:00:58.841Z,102905.79
2018-09-28T06:04:10.036Z,102902.66
2018-09-28T06:06:43.825Z,102910.04
2018-09-28T06:09:14.005Z,102911.50
2018-09-28T06:11:51.550Z,102915.06
2018-09-28T06:14:24.347Z,102918.81
2018-09-28T06:16:57.621Z,102914.96
2018-09-28T06:19:33.981Z,102924.93
2018-09-28T06:24:51.325Z,102922.95
2018-09-28T06:27:20.336Z,102930.38
2018-09-28T06:29:49.348Z,102931.73
2018-09-28T06:32:18.425Z,102936.11
2018-09-28T06:34:48.631Z,102939.77
2018-09-28T06:37:17.664Z,102934.62
2018-09-28T06:39:46.712Z,102935.23
2018-09-28T06:42:15.780Z,102934.49
2018-09-28T06:44:45.723Z,102938.64
2018-09-28T06:47:14.684Z,102949.92
2018-09-28T06:49:43.690Z,102948.87
2018-09-28T06:52:12.845Z,102950.86
2018-09-28T06:54:41.846Z,102961.81
2018-09-28T06:57:10.939Z,102968.26
2018-09-28T06:59:42.248Z,102965.41
2018-09-28T07:02:14.677Z,102971.25
2018-09-28T07:04:44.024Z,102974.98
2018-09-28T07:07:13.060Z,102976.38
2018-09-28T07:09:42.066Z,102995.75
2018-09-28T07:12:11.157Z,102995.78
2018-09-28T07:14:40.432Z,102997.78
2018-09-28T07:17:09.833Z,102994.56
2018-09-28T07:19:39.129Z,103002.98
2018-09-28T07:22:10.017Z,103007.31
2018-09-28T07:24:39.299Z,103009.73
2018-09-28T07:27:09.240Z,103011.34
2018-09-28T07:29:38.592Z,103022.28
2018-09-28T07:32:08.694Z,103030.99
2018-09-28T07:34:38.798Z,103033.72
2018-09-28T07:37:10.657Z,103034.19
2018-09-28T07:39:40.040Z,103037.96
2018-09-28T07:42:09.410Z,103033.86
2018-09-28T07:44:38.461Z,103049.63
2018-09-28T07:47:11.050Z,103049.99
2018-09-28T07:49:41.540Z,103050.17
2018-09-28T07:52:13.138Z,103060.47
2018-09-28T07:54:43.750Z,103062.86
2018-09-28T07:57:14.792Z,103069.82
2018-09-28T08:02:18.622Z,103071.34
2018-09-28T08:04:48.955Z,103067.37
2018-09-28T08:07:18.083Z,103071.61
2018-09-28T08:09:47.205Z,103080.86
2018-09-28T08:12:19.012Z,103084.00
2018-09-28T08:14:48.695Z,103076.73
2018-09-28T08:17:19.475Z,103076.17
2018-09-28T08:19:50.406Z,103074.89
2018-09-28T08:22:20.611Z,103079.88
2018-09-28T08:25:12.703Z,103092.30
2018-09-28T08:30:36.568Z,103094.59
2018-09-28T08:33:05.645Z,103087.31
2018-09-28T08:35:35.371Z,103102.94
2018-09-28T08:38:04.406Z,103100.73
2018-09-28T08:40:33.833Z,103101.26
2018-09-28T08:43:03.396Z,103091.48
2018-09-28T08:45:32.615Z,103109.30
2018-09-28T08:48:01.926Z,103105.56
2018-09-28T08:50:41.000Z,103102.02
2018-09-28T08:53:11.343Z,103097.92
2018-09-28T08:55:40.842Z,103103.95
2018-09-28T08:58:14.325Z,103108.13
2018-09-28T09:00:43.521Z,103109.26
2018-09-28T09:03:12.693Z,103114.28
2018-09-28T09:05:42.710Z,103106.08
2018-09-28T09:08:12.622Z,103114.28
2018-09-28T09:10:41.908Z,103114.56
2018-09-28T09:13:11.093Z,103116.53
2018-09-28T09:15:40.277Z,103118.19
2018-09-28T09:18:09.748Z,103129.72
2018-09-28T09:20:39.024Z,103136.27
2018-09-28T09:23:08.349Z,103141.41
2018-09-28T09:25:37.405Z,103141.13
2018-09-28T09:28:06.752Z,103153.70
2018-09-28T09:30:36.896Z,103146.07
2018-09-28T09:33:05.958Z,103146.07
2018-09-28T09:35:35.049Z,103162.23
2018-09-28T09:38:04.453Z,103159.49
2018-09-28T09:40:33.671Z,103169.87
2018-09-28T09:43:02.804Z,103172.92
2018-09-28T09:45:32.138Z,103179.23
2018-09-28T09:48:02.168Z,103187.71
2018-09-28T09:50:31.412Z,103176.63
2018-09-28T09:53:00.741Z,103181.33
2018-09-28T09:55:30.100Z,103181.93
2018-09-28T09:57:59.810Z,103186.77
2018-09-28T10:00:33.995Z,103195.38
2018-09-28T10:03:07.166Z,103199.31
2018-09-28T10:05:36.293Z,103190.34
2018-09-28T10:08:05.638Z,103188.22
2018-09-28T10:10:34.871Z,103186.09
2018-09-28T10:13:04.005Z,103181.27
2018-09-28T10:15:34.167Z,103176.92
2018-09-28T10:18:03.255Z,103191.20
2018-09-28T10:20:32.345Z,103190.39
2018-09-28T10:23:02.028Z,103189.91
2018-09-28T10:25:31.224Z,103198.71
2018-09-28T10:28:01.747Z,103202.26
2018-09-28T10:30:30.788Z,103204.06
2018-09-28T10:32:59.926Z,103204.26
2018-09-28T10:35:29.088Z,103209.08
2018-09-28T10:37:59.120Z,103223.12
2018-09-28T10:40:28.328Z,103218.53
2018-09-28T10:45:54.798Z,103225.97
2018-09-28T10:48:24.739Z,103220.45
2018-09-28T10:50:54.667Z,103212.17
2018-09-28T10:53:23.936Z,103192.18
2018-09-28T10:55:52.970Z,103184.57
2018-09-28T10:58:22.234Z,103185.48
2018-09-28T11:00:52.879Z,103179.12
2018-09-28T11:03:23.490Z,103187.09
2018-09-28T11:06:00.787Z,103199.37
2018-09-28T11:08:30.725Z,103200.19
2018-09-28T11:11:00.493Z,103203.11
2018-09-28T11:13:29.797Z,103191.77
2018-09-28T11:15:59.043Z,103198.53
2018-09-28T11:18:29.674Z,103175.52
2018-09-28T11:20:59.327Z,103177.81
2018-09-28T11:23:29.612Z,103171.56
2018-09-28T11:26:00.812Z,103170.19
2018-09-28T11:28:30.559Z,103155.91
2018-09-28T11:30:59.654Z,103156.73
2018-09-28T11:33:28.741Z,103156.67
2018-09-28T11:35:58.166Z,103159.05
2018-09-28T11:38:28.280Z,103165.48
2018-09-28T11:40:57.454Z,103173.10
2018-09-28T11:43:28.075Z,103175.78
2018-09-28T11:45:57.438Z,103167.18
2018-09-28T11:48:27.650Z,103170.28
2018-09-28T11:50:58.903Z,103180.84
2018-09-28T11:53:32.963Z,103175.02
2018-09-28T11:56:02.349Z,103188.33
2018-09-28T11:58:31.365Z,103184.53
2018-09-28T12:01:01.372Z,103188.12
2018-09-28T12:03:32.281Z,103190.61
2018-09-28T12:06:01.457Z,103162.91
2018-09-28T12:08:31.686Z,103164.17
2018-09-28T12:11:01.796Z,103174.73
2018-09-28T12:13:31.206Z,103162.30
2018-09-28T12:16:01.831Z,103171.64
2018-09-28T12:18:31.308Z,103160.34
2018-09-28T12:21:01.293Z,103152.37
2018-09-28T12:23:30.361Z,103152.37
2018-09-28T12:26:01.549Z,103146.46
2018-09-28T12:28:30.682Z,103143.32
2018-09-28T12:31:00.790Z,103138.71
2018-09-28T12:33:30.033Z,103150.58
2018-09-28T12:35:59.250Z,103148.80
2018-09-28T12:38:29.452Z,103127.78
2018-09-28T12:40:58.580Z,103125.33
2018-09-28T12:43:35.029Z,103133.30
2018-09-28T12:45:57.682Z,103140.80
2018-09-28T12:48:27.996Z,103130.70
2018-09-28T12:50:57.066Z,103136.25
2018-09-28T12:53:26.884Z,103136.08
2018-09-28T12:55:56.485Z,103147.13
2018-09-28T12:58:25.634Z,103134.30
2018-09-28T13:00:55.668Z,103137.88
2018-09-28T13:03:24.721Z,103142.58
2018-09-28T13:05:53.908Z,103147.36
2018-09-28T13:08:23.230Z,103152.91
2018-09-28T13:10:54.111Z,103144.69
2018-09-28T13:13:24.285Z,103137.63
2018-09-28T13:15:53.378Z,103131.92
2018-09-28T13:18:27.081Z,103127.95
2018-09-28T13:20:58.291Z,103124.39
2018-09-28T13:23:27.421Z,103145.55
2018-09-28T13:25:56.497Z,103145.63
2018-09-28T13:28:25.815Z,103135.55
2018-09-28T13:30:55.459Z,103135.36
2018-09-28T13:33:26.302Z,103138.37
2018-09-28T13:35:55.439Z,103129.87
2018-09-28T13:38:25.174Z,103144.64
2018-09-28T13:40:54.470Z,103126.48
2018-09-28T13:43:23.590Z,103129.23
2018-09-28T13:45:52.812Z,103125.75
2018-09-28T13:48:22.256Z,103148.84
2018-09-28T13:50:52.189Z,103139.03
2018-09-28T13:53:49.574Z,103144.83
2018-09-28T13:56:19.643Z,103134.33
2018-09-28T13:58:49.498Z,103135.09
2018-09-28T14:01:19.282Z,103133.98
2018-09-28T14:03:48.395Z,103135.17
2018-09-28T14:06:17.499Z,103132.00
2018-09-28T14:08:46.888Z,103126.56
2018-09-28T14:11:16.018Z,103137.53
2018-09-28T14:13:45.124Z,103130.22
2018-09-28T14:16:14.326Z,103138.37
2018-09-28T14:18:43.914Z,103137.70
2018-09-28T14:21:13.009Z,103141.74
2018-09-28T14:23:42.138Z,103149.08
2018-09-28T14:26:11.246Z,103136.18
2018-09-28T14:28:40.408Z,103133.44
2018-09-28T14:31:10.190Z,103140.57
2018-09-28T14:33:40.109Z,103133.44
2018-09-28T14:36:09.408Z,103146.13
2018-09-28T14:38:38.836Z,103145.63
2018-09-28T14:41:09.192Z,103143.20
2018-09-28T14:43:38.665Z,103159.14
2018-09-28T14:46:07.922Z,103162.98
2018-09-28T14:48:39.009Z,103143.45
2018-09-28T14:51:08.266Z,103146.52
2018-09-28T14:53:42.800Z,103147.00
2018-09-28T14:56:29.484Z,103151.17
2018-09-28T14:59:06.510Z,103141.18
2018-09-28T15:01:42.571Z,103145.35
2018-09-28T15:04:11.796Z,103144.51
2018-09-28T15:06:42.268Z,103149.19
2018-09-28T15:09:18.363Z,103143.70
2018-09-28T15:11:47.671Z,103144.84
2018-09-28T15:14:17.742Z,103146.52
2018-09-28T15:16:47.170Z,103134.38
2018-09-28T15:19:16.395Z,103141.63
2018-09-28T15:21:45.417Z,103143.27
2018-09-28T15:24:14.774Z,103131.11
2018-09-28T15:26:44.073Z,103133.59
2018-09-28T15:29:13.554Z,103142.41
2018-09-28T15:31:44.001Z,103135.55
2018-09-28T15:34:13.303Z,103142.48
2018-09-28T15:36:42.533Z,103146.67
2018-09-28T15:39:13.355Z,103143.86
2018-09-28T15:41:43.911Z,103148.50
2018-09-28T15:44:13.094Z,103142.16
2018-09-28T15:46:42.211Z,103150.38
2018-09-28T15:49:11.262Z,103148.67
2018-09-28T15:51:40.428Z,103142.02
2018-09-28T15:54:09.511Z,103149.66
2018-09-28T15:56:38.791Z,103159.84
2018-09-28T15:59:15.467Z,103161.20
2018-09-28T16:01:44.788Z,103143.51
2018-09-28T16:04:13.979Z,103157.08
2018-09-28T16:06:43.079Z,103146.92
2018-09-28T16:09:12.091Z,103137.32
2018-09-28T16:11:41.107Z,103141.16
2018-09-28T16:14:10.780Z,103138.36
2018-09-28T16:16:39.922Z,103133.60
2018-09-28T16:19:09.027Z,103149.83
2018-09-28T16:21:38.258Z,103139.00
2018-09-28T16:24:07.430Z,103139.00
2018-09-28T16:26:36.943Z,103137.05
2018-09-28T16:29:06.807Z,103133.72
2018-09-28T16:31:35.845Z,103132.03
2018-09-28T16:34:06.448Z,103142.41
2018-09-28T16:36:35.780Z,103140.17
2018-09-28T16:39:06.560Z,103136.56
2018-09-28T16:41:35.602Z,103141.71
2018-09-28T16:44:05.016Z,103150.72
2018-09-28T16:46:35.008Z,103155.33
2018-09-28T16:49:04.627Z,103160.44
2018-09-28T16:51:34.389Z,103155.45
2018-09-28T16:54:03.595Z,103156.48
2018-09-28T16:56:32.657Z,103155.87
2018-09-28T16:59:01.702Z,103154.97
2018-09-28T17:01:30.725Z,103153.00
2018-09-28T17:03:59.793Z,103153.22
2018-09-28T17:06:28.782Z,103158.39
2018-09-28T17:08:57.852Z,103158.89
2018-09-28T17:11:26.870Z,103158.80
2018-09-28T17:13:56.321Z,103159.50
2018-09-28T17:16:26.221Z,103155.58
2018-09-28T17:18:55.417Z,103159.06
2018-09-28T17:21:24.747Z,103155.45
2018-09-28T17:23:53.856Z,103156.47
2018-09-28T17:26:24.021Z,103161.61
2018-09-28T17:28:53.127Z,103165.05
2018-09-28T17:31:22.151Z,103157.86
2018-09-28T17:33:51.189Z,103164.88
2018-09-28T17:36:20.261Z,103171.63
2018-09-28T17:38:49.303Z,103163.90
2018-09-28T17:41:18.522Z,103156.56
2018-09-28T17:43:47.572Z,103164.00
2018-09-28T17:46:16.602Z,103162.70
2018-09-28T17:48:45.766Z,103167.14
2018-09-28T17:51:15.046Z,103166.75
2018-09-28T17:53:44.258Z,103171.19
2018-09-28T17:56:13.307Z,103167.66
2018-09-28T17:58:47.780Z,103172.66
2018-09-28T18:01:16.899Z,103169.36
2018-09-28T18:03:46.095Z,103155.45
2018-09-28T18:06:16.355Z,103165.34
2018-09-28T18:08:45.491Z,103169.27
2018-09-28T18:11:15.471Z,103173.16
2018-09-28T18:13:44.525Z,103168.77
2018-09-28T18:16:14.104Z,103173.97
2018-09-28T18:18:43.940Z,103168.96
2018-09-28T18:21:13.124Z,103173.28
2018-09-28T18:23:42.174Z,103175.12
2018-09-28T18:26:11.600Z,103183.02
2018-09-28T18:28:40.694Z,103178.00
2018-09-28T18:31:09.807Z,103182.64
2018-09-28T18:33:38.927Z,103184.00
2018-09-28T18:36:07.895Z,103187.14
2018-09-28T18:38:37.093Z,103190.64
2018-09-28T18:41:06.138Z,103193.48
2018-09-28T18:43:35.197Z,103204.03
2018-09-28T18:46:04.542Z,103207.05
2018-09-28T18:48:33.645Z,103208.25
2018-09-28T18:51:02.877Z,103203.35
2018-09-28T18:53:32.941Z,103201.95
2018-09-28T18:56:02.105Z,103207.65
2018-09-28T18:58:31.275Z,103216.91
2018-09-28T19:01:01.217Z,103218.77
2018-09-28T19:03:30.317Z,103228.88
2018-09-28T19:06:02.023Z,103228.59
2018-09-28T19:08:33.729Z,103229.45
2018-09-28T19:11:02.749Z,103235.56
2018-09-28T19:13:32.022Z,103236.93
2018-09-28T19:16:01.084Z,103232.38
2018-09-28T19:18:32.992Z,103228.41
2018-09-28T19:21:04.642Z,103234.69
2018-09-28T19:23:33.654Z,103231.75
2018-09-28T19:26:03.061Z,103241.97
2018-09-28T19:28:32.520Z,103239.36
2018-09-28T19:31:01.832Z,103248.05
2018-09-28T19:33:32.965Z,103237.19
2018-09-28T19:36:01.967Z,103240.25
2018-09-28T19:38:31.242Z,103237.64
2018-09-28T19:41:00.454Z,103234.29
2018-09-28T19:43:29.521Z,103237.34
2018-09-28T19:45:58.645Z,103235.21
2018-09-28T19:48:28.108Z,103246.72
2018-09-28T19:50:57.717Z,103245.69
2018-09-28T19:53:26.861Z,103255.84
2018-09-28T19:55:56.945Z,103252.06
2018-09-28T19:58:26.088Z,103257.50
2018-09-28T20:00:55.249Z,103263.80
2018-09-28T20:03:25.297Z,103250.40
2018-09-28T20:05:54.640Z,103262.32
2018-09-28T20:08:23.781Z,103254.67
2018-09-28T20:10:52.917Z,103259.92
2018-09-28T20:13:22.053Z,103260.00
2018-09-28T20:15:52.157Z,103260.63
2018-09-28T20:18:21.290Z,103262.51
2018-09-28T20:20:51.010Z,103260.33
2018-09-28T20:23:21.060Z,103264.63
2018-09-28T20:25:50.221Z,103254.48
2018-09-28T20:28:19.331Z,103269.12
2018-09-28T20:30:48.429Z,103272.36
2018-09-28T20:33:17.555Z,103265.56
2018-09-28T20:35:46.820Z,103267.98
2018-09-28T20:38:15.847Z,103265.48
2018-09-28T20:40:45.215Z,103266.22
2018-09-28T20:43:14.371Z,103269.16
2018-09-28T20:45:43.564Z,103273.13
2018-09-28T20:48:12.603Z,103269.48
2018-09-28T20:50:41.760Z,103269.38
2018-09-28T20:53:11.012Z,103263.52
2018-09-28T20:55:40.117Z,103268.04
2018-09-28T20:58:09.248Z,103264.58
2018-09-28T21:00:38.431Z,103269.43
2018-09-28T21:03:07.341Z,103262.22
2018-09-28T21:05:36.608Z,103254.45
2018-09-28T21:08:05.661Z,103261.36
2018-09-28T21:10:35.578Z,103263.48
2018-09-28T21:13:04.729Z,103256.79
2018-09-28T21:15:33.778Z,103249.36
2018-09-28T21:18:02.943Z,103249.03
2018-09-28T21:20:32.061Z,103258.25
2018-09-28T21:23:01.563Z,103250.09
2018-09-28T21:25:31.458Z,103244.66
2018-09-28T21:28:00.573Z,103241.42
2018-09-28T21:30:29.668Z,103239.52
2018-09-28T21:32:58.814Z,103240.88
2018-09-28T21:35:27.894Z,103247.16
2018-09-28T21:37:56.953Z,103239.84
2018-09-28T21:40:26.044Z,103234.70
2018-09-28T21:42:55.587Z,103238.15
2018-09-28T21:45:24.687Z,103234.50
2018-09-28T21:47:53.797Z,103224.36
2018-09-28T21:50:22.912Z,103226.99
2018-09-28T21:52:52.324Z,103220.81
2018-09-28T21:55:21.379Z,103218.83
2018-09-28T21:57:50.565Z,103226.05
2018-09-28T22:00:19.686Z,103221.35
2018-09-28T22:02:48.674Z,103223.22
2018-09-28T22:05:27.038Z,103223.22
2018-09-28T22:07:56.195Z,103225.86
2018-09-28T22:10:25.364Z,103224.09
2018-09-28T22:12:54.452Z,103221.03
2018-09-28T22:15:23.783Z,103222.52
2018-09-28T22:17:53.287Z,103217.48
2018-09-28T22:20:35.703Z,103219.26
2018-09-28T22:26:10.916Z,103229.30
2018-09-28T22:28:51.975Z,103231.06
2018-09-28T22:31:21.113Z,103224.80
2018-09-28T22:34:06.959Z,103218.32
2018-09-28T22:36:39.396Z,103224.25
2018-09-28T22:39:30.339Z,103216.42
2018-09-28T22:42:13.324Z,103213.61
2018-09-28T22:44:58.120Z,103213.08
2018-09-28T22:47:43.331Z,103216.82
2018-09-28T22:50:31.330Z,103225.30
2018-09-28T22:53:18.805Z,103228.95
2018-09-28T22:56:02.667Z,103218.51
2018-09-28T22:58:32.020Z,103223.02
2018-09-28T23:01:17.147Z,103228.93
2018-09-28T23:04:00.926Z,103220.88
2018-09-28T23:06:46.091Z,103216.50
2018-09-28T23:09:15.257Z,103210.73
2018-09-28T23:11:48.252Z,103216.84
2018-09-28T23:14:17.899Z,103221.04
2018-09-28T23:16:46.888Z,103219.68
2018-09-28T23:19:15.851Z,103216.84
2018-09-28T23:21:44.981Z,103213.33
2018-09-28T23:24:14.016Z,103216.59
2018-09-28T23:26:43.823Z,103213.36
2018-09-28T23:29:12.799Z,103212.21
2018-09-28T23:31:41.826Z,103219.94
2018-09-28T23:34:10.909Z,103219.94
2018-09-28T23:36:40.060Z,103216.62
2018-09-28T23:39:10.168Z,103214.08
2018-09-28T23:41:39.634Z,103214.72
2018-09-28T23:44:09.265Z,103211.91
2018-09-28T23:46:38.330Z,103219.34
2018-09-28T23:49:07.749Z,103222.47
2018-09-28T23:51:37.804Z,103221.75
2018-09-28T23:54:06.837Z,103229.56
2018-09-28T23:56:35.840Z,103222.89
2018-09-28T23:59:04.915Z,103228.42
